Aérodrome :
LOGIN :

S'inscrire | Disclaimer

   EN    FR    IT 

 










Légende :    VFR   VFR Marginal   IFR   IFR Intensif   IFR Très Intensif
Visi : 
Plafond : 
>= 8 km
>= 3000ft
5 à 8 km
1000 à 3000 ft
1500m à 5 km
500 à 1000 ft
800 à 1500m
200 à 500 ft
< 800m
< 200 ft
Symboles :   Orages  Brouillard  Fortes neiges  Fortes précipitations  Vent > 20 kt
SIGMETs :   Divers  Orages  Givrage  Turbulence  Onde Orograph.  Cendres Volcan.







- Altitude de l'aérodrome : 751 ft
- Code IATA : ENC
- Voir les cartes d'approche


LFSN - Nancy Essey

DERNIER METAR :
  • 180430Z AUTO 00000KT 0400 0350 R03/0400N FZFG VV/// M04/M05 Q1026

METARs EXPIRÉS :
  • 180400Z AUTO 16001KT 0450 0250 R03/0700D FZFG VV/// M04/M05 Q1026
  • 180330Z AUTO 00000KT 0250 0200 R03/0225N FZFG VV/// M04/M05 Q1026
  • 180300Z AUTO 00000KT 0350 0300 R03/0600U FZFG VV/// M04/M05 Q1026
  • 180230Z AUTO VRB01KT 0300 R03/0250D FZFG VV/// M03/M03 Q1026
  • 180200Z AUTO 00000KT 0350 0300 R03/0550D FZFG VV/// M03/M03 Q1026

Prévision TAF périmée.
Pas de NOTAMs connus pour ce terrain.



MET'MAP, la Météo Aéronautique d'un coup d'oeil ! - Copyright ORBIFLY Décembre 2007 - Disclaimer

ORBIFLY MET'MAP TEAM :

Programmation & Développement : Alexandra Zaïnal
Conception & Développement : Baudouin d'Aumeries
Co-Programmation & Développement : Marc-Olivier Méhu
Soutien technique & logistique : Manuel Goepfert

Contact : metmap@orbifly.com




SOURCES & CREDITS :

   NOAA